Terminal Aerodrome Forecast
Issued by NWS

Home | Current Version | Previous Version | Graphics & Text | Print | Product List | Glossary Off
Versions: 1 2 3 4 5 6 7 8 9 10 11 12 13 14 15 16

000
FTUS43 KICT 262336
TAFHUT
TAF
KHUT 262336Z 2700/2724 14006KT P6SM BKN150
     FM270200 VRB05KT P6SM BKN070
     FM270600 35008KT P6SM SCT030
     FM271200 36010KT P6SM OVC015
     FM271600 36012KT P6SM BKN020
     FM271900 01011KT P6SM SCT035=

USA.gov is the U.S. government's official web portal to all federal, state and local government web resources and services.